createdAt,value
2023-05-08T00:02:22.008Z,4.62
2023-05-08T00:05:25.059Z,3.95
2023-05-08T00:08:27.734Z,3.85
2023-05-08T00:11:30.612Z,4.47
2023-05-08T00:14:33.088Z,3.90
2023-05-08T00:17:35.960Z,4.18
2023-05-08T00:20:38.598Z,4.07
2023-05-08T00:23:41.514Z,4.10
2023-05-08T00:26:45.688Z,3.67
2023-05-08T00:29:49.059Z,4.30
2023-05-08T00:32:51.865Z,3.95
2023-05-08T00:36:05.086Z,4.28
2023-05-08T00:39:07.908Z,4.05
2023-05-08T00:42:10.970Z,4.05
2023-05-08T00:45:13.606Z,3.70
2023-05-08T00:48:16.474Z,3.92
2023-05-08T00:51:19.346Z,4.35
2023-05-08T00:54:23.317Z,4.50
2023-05-08T00:57:25.939Z,4.40
2023-05-08T01:00:29.145Z,3.90
2023-05-08T01:03:33.776Z,4.37
2023-05-08T01:06:37.506Z,4.00
2023-05-08T01:09:40.122Z,4.35
2023-05-08T01:13:15.281Z,4.43
2023-05-08T01:16:39.889Z,4.82
2023-05-08T01:20:21.493Z,5.00
2023-05-08T01:23:51.472Z,4.75
2023-05-08T01:27:03.305Z,5.20
2023-05-08T01:30:44.609Z,4.95
2023-05-08T01:33:55.569Z,4.82
2023-05-08T01:37:03.702Z,5.10
2023-05-08T01:40:13.209Z,4.72
2023-05-08T01:43:25.142Z,4.60
2023-05-08T01:46:31.593Z,4.62
2023-05-08T01:49:40.663Z,4.37
2023-05-08T01:52:53.326Z,4.40
2023-05-08T01:56:03.591Z,4.57
2023-05-08T01:59:08.085Z,4.40
2023-05-08T02:02:13.391Z,4.70
2023-05-08T02:05:18.360Z,4.10
2023-05-08T02:08:24.442Z,4.10
2023-05-08T02:11:29.287Z,4.37
2023-05-08T02:14:32.906Z,4.20
2023-05-08T02:17:39.702Z,4.10
2023-05-08T02:20:42.399Z,4.53
2023-05-08T02:23:46.856Z,4.57
2023-05-08T02:26:51.051Z,4.40
2023-05-08T02:29:55.194Z,5.00
2023-05-08T02:33:00.655Z,4.57
2023-05-08T02:36:04.703Z,4.75
2023-05-08T02:39:11.206Z,4.95
2023-05-08T02:42:15.819Z,4.70
2023-05-08T02:45:18.954Z,4.20
2023-05-08T02:48:33.208Z,4.28
2023-05-08T02:51:48.329Z,4.62
2023-05-08T02:55:26.627Z,4.37
2023-05-08T02:58:49.255Z,4.68
2023-05-08T03:02:06.169Z,4.60
2023-05-08T03:05:17.133Z,4.50
2023-05-08T03:08:26.163Z,5.07
2023-05-08T03:11:38.851Z,4.75
2023-05-08T03:14:52.723Z,4.45
2023-05-08T03:18:00.647Z,4.28
2023-05-08T03:21:06.364Z,4.68
2023-05-08T03:24:09.779Z,4.28
2023-05-08T03:27:15.053Z,4.20
2023-05-08T03:30:19.105Z,4.40
2023-05-08T03:33:23.931Z,4.20
2023-05-08T03:36:27.163Z,4.97
2023-05-08T03:39:30.518Z,4.05
2023-05-08T03:42:33.561Z,3.67
2023-05-08T03:45:38.665Z,3.50
2023-05-08T03:48:41.646Z,3.00
2023-05-08T03:51:45.802Z,2.87
2023-05-08T03:54:50.494Z,2.80
2023-05-08T03:58:11.512Z,2.65
2023-05-08T04:01:28.112Z,2.65
2023-05-08T04:04:42.710Z,2.70
2023-05-08T04:08:30.106Z,2.60
2023-05-08T04:12:09.751Z,2.33
2023-05-08T04:15:22.780Z,2.60
2023-05-08T04:18:30.298Z,2.58
2023-05-08T04:21:36.319Z,2.83
2023-05-08T04:24:44.247Z,2.50
2023-05-08T04:27:48.637Z,2.20
2023-05-08T04:30:51.975Z,1.90
2023-05-08T04:33:55.584Z,1.83
2023-05-08T04:36:58.829Z,1.77
2023-05-08T04:40:01.847Z,1.90
2023-05-08T04:43:05.488Z,1.83
2023-05-08T04:46:08.925Z,1.60
2023-05-08T04:49:11.986Z,2.10
2023-05-08T04:52:14.601Z,2.30
2023-05-08T04:55:26.434Z,2.40
2023-05-08T04:58:29.677Z,1.83
2023-05-08T05:01:32.978Z,1.87
2023-05-08T05:04:36.850Z,2.03
2023-05-08T05:07:40.059Z,1.62
2023-05-08T05:10:42.732Z,1.87
2023-05-08T05:13:46.014Z,1.90
2023-05-08T05:16:48.814Z,1.58
2023-05-08T05:19:53.518Z,1.50
2023-05-08T05:22:57.641Z,1.40
2023-05-08T05:26:01.574Z,1.77
2023-05-08T05:29:05.334Z,1.37
2023-05-08T05:32:10.165Z,1.70
2023-05-08T05:35:13.506Z,1.48
2023-05-08T05:38:17.057Z,1.50
2023-05-08T05:41:20.019Z,1.35
2023-05-08T05:44:23.026Z,1.40
2023-05-08T05:47:25.857Z,1.50
2023-05-08T05:50:29.011Z,1.73
2023-05-08T05:53:32.421Z,1.60
2023-05-08T05:56:35.375Z,1.40
2023-05-08T05:59:38.569Z,1.40
2023-05-08T06:02:43.864Z,1.40
2023-05-08T06:05:47.640Z,1.62
2023-05-08T06:08:50.476Z,1.20
2023-05-08T06:11:53.393Z,1.50
2023-05-08T06:14:56.187Z,1.17
2023-05-08T06:17:59.292Z,1.40
2023-05-08T06:21:01.949Z,1.37
2023-05-08T06:24:06.801Z,1.73
2023-05-08T06:27:09.442Z,1.37
2023-05-08T06:30:12.572Z,1.30
2023-05-08T06:33:14.986Z,1.17
2023-05-08T06:36:17.830Z,1.20
2023-05-08T06:39:20.802Z,1.48
2023-05-08T06:42:23.794Z,1.37
2023-05-08T06:45:26.891Z,1.50
2023-05-08T06:48:29.754Z,1.52
2023-05-08T06:51:32.863Z,1.37
2023-05-08T06:54:35.818Z,1.20
2023-05-08T06:57:38.334Z,1.58
2023-05-08T07:00:42.675Z,1.30
2023-05-08T07:03:45.266Z,1.37
2023-05-08T07:06:48.253Z,1.48
2023-05-08T07:09:51.008Z,1.10
2023-05-08T07:12:54.584Z,1.17
2023-05-08T07:15:57.249Z,1.10
2023-05-08T07:19:00.326Z,1.40
2023-05-08T07:22:03.302Z,1.20
2023-05-08T07:25:06.859Z,1.10
2023-05-08T07:28:09.674Z,1.05
2023-05-08T07:31:12.647Z,1.00
2023-05-08T07:34:15.243Z,1.12
2023-05-08T07:37:18.100Z,0.98
2023-05-08T07:40:20.728Z,1.08
2023-05-08T07:43:24.398Z,1.00
2023-05-08T07:46:27.152Z,1.37
2023-05-08T07:49:30.372Z,1.00
2023-05-08T07:52:32.928Z,0.98
2023-05-08T07:55:36.229Z,1.10
2023-05-08T07:58:38.908Z,0.90
2023-05-08T08:01:47.161Z,1.10
2023-05-08T08:04:50.130Z,0.93
2023-05-08T08:07:52.855Z,1.08
2023-05-08T08:10:55.876Z,1.50
2023-05-08T08:13:58.506Z,0.88
2023-05-08T08:17:01.682Z,0.80
2023-05-08T08:20:04.674Z,0.82
2023-05-08T08:23:07.911Z,1.12
2023-05-08T08:26:10.591Z,0.90
2023-05-08T08:29:13.494Z,0.98
2023-05-08T08:32:16.164Z,0.62
2023-05-08T08:35:19.186Z,1.00
2023-05-08T08:38:21.953Z,0.65
2023-05-08T08:41:24.838Z,1.08
2023-05-08T08:44:27.860Z,0.80
2023-05-08T08:47:41.195Z,0.80
2023-05-08T08:50:50.406Z,0.60
2023-05-08T08:54:12.213Z,0.60
2023-05-08T08:57:20.145Z,0.70
2023-05-08T09:00:26.742Z,0.60
2023-05-08T09:03:30.877Z,0.70
2023-05-08T09:06:38.383Z,0.60
2023-05-08T09:09:44.369Z,0.50
2023-05-08T09:12:48.265Z,0.52
2023-05-08T09:15:51.075Z,0.50
2023-05-08T09:18:54.429Z,0.50
2023-05-08T09:22:00.644Z,0.65
2023-05-08T09:25:04.918Z,0.50
2023-05-08T09:28:26.226Z,0.32
2023-05-08T09:31:40.471Z,0.52
2023-05-08T09:34:52.598Z,0.50
2023-05-08T09:37:57.365Z,0.52
2023-05-08T09:41:14.824Z,0.88
2023-05-08T09:44:17.892Z,0.47
2023-05-08T09:47:23.050Z,0.60
2023-05-08T09:50:26.699Z,0.82
2023-05-08T09:53:32.715Z,0.50
2023-05-08T09:56:40.185Z,0.40
2023-05-08T09:59:42.837Z,0.50
2023-05-08T10:03:01.153Z,0.60
2023-05-08T10:06:14.360Z,0.40
2023-05-08T10:09:17.165Z,0.40
2023-05-08T10:12:21.385Z,0.40
2023-05-08T10:15:26.227Z,0.50
2023-05-08T10:18:35.330Z,0.57
2023-05-08T10:21:40.712Z,0.40
2023-05-08T10:24:44.569Z,1.08
2023-05-08T10:27:59.556Z,0.40
2023-05-08T10:31:05.664Z,0.60
2023-05-08T10:34:13.362Z,0.40
2023-05-08T10:37:16.950Z,0.35
2023-05-08T10:40:21.435Z,0.43
2023-05-08T10:43:29.519Z,0.85
2023-05-08T10:46:59.814Z,0.40
2023-05-08T10:50:12.048Z,0.50
2023-05-08T10:53:25.127Z,0.62
2023-05-08T10:56:29.274Z,0.30
2023-05-08T10:59:36.705Z,0.40
2023-05-08T11:02:39.604Z,0.93
2023-05-08T11:05:49.886Z,1.08
2023-05-08T11:08:55.569Z,0.50
2023-05-08T11:12:26.160Z,0.40
2023-05-08T11:15:40.306Z,0.30
2023-05-08T11:19:17.771Z,0.40
2023-05-08T11:22:25.882Z,0.40
2023-05-08T11:25:43.463Z,1.70
2023-05-08T11:28:57.340Z,0.57
2023-05-08T11:32:00.202Z,0.37
2023-05-08T11:35:03.287Z,0.32
2023-05-08T11:38:16.943Z,2.30
2023-05-08T11:41:24.455Z,0.70
2023-05-08T11:44:28.927Z,0.50
2023-05-08T11:47:38.111Z,0.40
2023-05-08T11:50:41.328Z,0.50
2023-05-08T11:53:44.887Z,0.50
2023-05-08T11:56:48.903Z,0.40
2023-05-08T11:59:52.076Z,0.40
2023-05-08T12:02:54.650Z,0.90
2023-05-08T12:05:59.863Z,0.80
2023-05-08T12:09:05.415Z,0.60
2023-05-08T12:12:08.251Z,0.50
2023-05-08T12:15:12.920Z,0.50
2023-05-08T12:18:17.047Z,0.60
2023-05-08T12:21:21.405Z,0.70
2023-05-08T12:24:26.304Z,0.45
2023-05-08T12:27:29.308Z,0.45
2023-05-08T12:30:32.301Z,0.30
2023-05-08T12:33:35.175Z,0.60
2023-05-08T12:36:38.570Z,0.50
2023-05-08T12:39:44.784Z,0.50
2023-05-08T12:42:51.326Z,0.40
2023-05-08T12:45:53.849Z,0.65
2023-05-08T12:49:04.649Z,0.50
2023-05-08T12:52:09.087Z,0.60
2023-05-08T12:55:27.018Z,0.70
2023-05-08T12:58:31.966Z,0.55
2023-05-08T13:01:34.906Z,0.70
2023-05-08T13:04:38.593Z,0.60
2023-05-08T13:07:42.006Z,0.70
2023-05-08T13:10:50.230Z,0.73
2023-05-08T13:13:53.210Z,0.40
2023-05-08T13:16:56.134Z,0.47
2023-05-08T13:19:59.257Z,0.88
2023-05-08T13:23:02.501Z,0.60
2023-05-08T13:26:05.460Z,0.40
2023-05-08T13:29:08.303Z,0.50
2023-05-08T13:32:11.187Z,0.60
2023-05-08T13:35:13.926Z,0.57
2023-05-08T13:38:16.939Z,0.70
2023-05-08T13:41:19.798Z,0.98
2023-05-08T13:44:22.723Z,1.20
2023-05-08T13:47:25.363Z,0.60
2023-05-08T13:50:28.443Z,0.60
2023-05-08T13:53:31.205Z,0.50
2023-05-08T13:56:36.579Z,0.50
2023-05-08T13:59:39.329Z,0.60
2023-05-08T14:02:42.306Z,0.80
2023-05-08T14:05:45.317Z,0.85
2023-05-08T14:08:50.185Z,0.90
2023-05-08T14:11:54.597Z,1.08
2023-05-08T14:14:57.140Z,0.70
2023-05-08T14:18:00.265Z,0.70
2023-05-08T14:21:02.937Z,0.90
2023-05-08T14:24:06.277Z,0.70
2023-05-08T14:27:08.863Z,1.20
2023-05-08T14:30:12.410Z,0.80
2023-05-08T14:33:17.228Z,0.65
2023-05-08T14:36:22.106Z,0.70
2023-05-08T14:39:24.664Z,0.90
2023-05-08T14:42:27.552Z,0.73
2023-05-08T14:45:30.342Z,0.70
2023-05-08T14:48:33.559Z,0.70
2023-05-08T14:51:36.498Z,0.60
2023-05-08T14:54:39.968Z,0.80
2023-05-08T14:57:43.336Z,0.75
2023-05-08T15:00:46.836Z,0.73
2023-05-08T15:03:53.327Z,0.60
2023-05-08T15:06:56.367Z,0.73
2023-05-08T15:09:58.906Z,0.70
2023-05-08T15:13:02.497Z,0.60
2023-05-08T15:16:05.986Z,0.65
2023-05-08T15:19:09.585Z,0.62
2023-05-08T15:22:13.582Z,0.80
2023-05-08T15:25:16.934Z,0.60
2023-05-08T15:28:19.890Z,0.60
2023-05-08T15:31:23.007Z,0.60
2023-05-08T15:34:29.122Z,1.12
2023-05-08T15:37:37.069Z,1.00
2023-05-08T15:40:39.921Z,0.60
2023-05-08T15:43:45.149Z,0.80
2023-05-08T15:46:47.879Z,1.00
2023-05-08T15:49:51.275Z,1.10
2023-05-08T15:52:54.002Z,0.80
2023-05-08T15:55:57.381Z,0.80
2023-05-08T15:59:00.151Z,1.00
2023-05-08T16:02:04.440Z,0.80
2023-05-08T16:05:07.957Z,0.90
2023-05-08T16:08:13.139Z,1.08
2023-05-08T16:11:16.299Z,0.70
2023-05-08T16:14:19.922Z,0.90
2023-05-08T16:17:23.007Z,1.00
2023-05-08T16:20:25.672Z,1.05
2023-05-08T16:23:28.769Z,1.05
2023-05-08T16:26:31.437Z,1.15
2023-05-08T16:29:34.262Z,0.90
2023-05-08T16:32:37.110Z,1.23
2023-05-08T16:35:40.370Z,1.10
2023-05-08T16:38:42.989Z,1.12
2023-05-08T16:41:45.933Z,1.50
2023-05-08T16:44:48.768Z,1.23
2023-05-08T16:47:51.668Z,1.40
2023-05-08T16:50:54.356Z,1.15
2023-05-08T16:53:58.187Z,1.37
2023-05-08T16:57:00.752Z,1.52
2023-05-08T17:00:05.683Z,1.58
2023-05-08T17:03:08.558Z,1.10
2023-05-08T17:06:11.942Z,1.70
2023-05-08T17:09:14.571Z,1.60
2023-05-08T17:12:17.472Z,1.58
2023-05-08T17:15:20.105Z,1.35
2023-05-08T17:18:22.991Z,1.67
2023-05-08T17:21:25.752Z,1.20
2023-05-08T17:24:32.640Z,2.78
2023-05-08T17:27:36.121Z,1.48
2023-05-08T17:30:39.782Z,1.50
2023-05-08T17:33:42.534Z,1.70
2023-05-08T17:36:45.310Z,1.75
2023-05-08T17:39:47.900Z,1.60
2023-05-08T17:42:50.751Z,1.30
2023-05-08T17:45:53.241Z,1.58
2023-05-08T17:48:56.146Z,2.00
2023-05-08T17:51:58.637Z,1.80
2023-05-08T17:55:01.434Z,1.70
2023-05-08T17:58:04.163Z,1.92
2023-05-08T18:01:07.081Z,1.90
2023-05-08T18:04:10.700Z,1.77
2023-05-08T18:07:13.356Z,1.60
2023-05-08T18:10:16.495Z,2.00
2023-05-08T18:13:19.278Z,2.08
2023-05-08T18:16:22.657Z,1.80
2023-05-08T18:19:25.328Z,1.85
2023-05-08T18:22:28.450Z,2.05
2023-05-08T18:25:31.133Z,1.80
2023-05-08T18:28:36.075Z,2.05
2023-05-08T18:31:38.934Z,2.22
2023-05-08T18:34:42.022Z,1.80
2023-05-08T18:37:44.807Z,1.98
2023-05-08T18:40:47.791Z,2.42
2023-05-08T18:43:50.561Z,2.10
2023-05-08T18:46:53.397Z,2.08
2023-05-08T18:49:57.849Z,2.03
2023-05-08T18:53:00.816Z,2.35
2023-05-08T18:56:04.251Z,2.40
2023-05-08T18:59:07.264Z,2.87
2023-05-08T19:02:10.731Z,2.30
2023-05-08T19:05:13.681Z,2.42
2023-05-08T19:08:20.002Z,2.33
2023-05-08T19:11:22.882Z,2.20
2023-05-08T19:14:25.764Z,2.55
2023-05-08T19:17:28.695Z,2.33
2023-05-08T19:20:31.234Z,2.80
2023-05-08T19:23:34.376Z,2.55
2023-05-08T19:26:37.191Z,2.30
2023-05-08T19:29:40.086Z,2.30
2023-05-08T19:32:42.600Z,3.03
2023-05-08T19:35:45.475Z,2.92
2023-05-08T19:38:48.046Z,2.37
2023-05-08T19:41:54.468Z,2.80
2023-05-08T19:44:57.153Z,2.47
2023-05-08T19:48:00.052Z,2.60
2023-05-08T19:51:06.994Z,2.85
2023-05-08T19:54:09.885Z,2.70
2023-05-08T19:57:12.921Z,2.87
2023-05-08T20:00:16.349Z,2.90
2023-05-08T20:03:19.968Z,2.65
2023-05-08T20:06:22.657Z,2.70
2023-05-08T20:09:25.486Z,2.67
2023-05-08T20:12:28.058Z,2.80
2023-05-08T20:15:31.040Z,2.87
2023-05-08T20:18:35.351Z,2.92
2023-05-08T20:21:38.848Z,2.62
2023-05-08T20:24:41.358Z,2.70
2023-05-08T20:27:44.115Z,2.97
2023-05-08T20:30:46.744Z,2.85
2023-05-08T20:33:49.608Z,2.70
2023-05-08T20:36:52.189Z,2.50
2023-05-08T20:39:55.152Z,2.55
2023-05-08T20:42:57.724Z,2.70
2023-05-08T20:46:00.650Z,2.80
2023-05-08T20:49:04.094Z,2.75
2023-05-08T20:52:07.249Z,2.70
2023-05-08T20:55:10.007Z,3.10
2023-05-08T20:58:13.379Z,2.78
2023-05-08T21:01:16.310Z,2.90
2023-05-08T21:04:20.331Z,2.95
2023-05-08T21:07:22.896Z,3.05
2023-05-08T21:10:28.656Z,3.12
2023-05-08T21:13:32.079Z,2.83
2023-05-08T21:16:34.991Z,2.92
2023-05-08T21:19:37.645Z,2.80
2023-05-08T21:22:40.540Z,2.97
2023-05-08T21:25:49.923Z,2.92
2023-05-08T21:28:53.699Z,3.00
2023-05-08T21:31:56.442Z,3.00
2023-05-08T21:34:59.202Z,3.40
2023-05-08T21:38:01.721Z,2.72
2023-05-08T21:41:11.079Z,2.95
2023-05-08T21:44:15.420Z,2.90
2023-05-08T21:47:19.411Z,2.78
2023-05-08T21:50:25.660Z,3.17
2023-05-08T21:53:30.888Z,2.90
2023-05-08T21:56:33.419Z,2.80
2023-05-08T21:59:36.380Z,3.35
2023-05-08T22:02:38.987Z,3.15
2023-05-08T22:05:41.933Z,3.10
2023-05-08T22:08:44.420Z,3.00
2023-05-08T22:11:47.218Z,3.20
2023-05-08T22:14:49.748Z,3.08
2023-05-08T22:17:52.710Z,2.72
2023-05-08T22:20:55.892Z,3.03
2023-05-08T22:23:58.778Z,2.80
2023-05-08T22:27:01.548Z,2.92
2023-05-08T22:30:05.180Z,2.80
2023-05-08T22:33:08.079Z,2.78
2023-05-08T22:36:10.947Z,3.00
2023-05-08T22:39:13.432Z,2.85
2023-05-08T22:42:16.714Z,3.00
2023-05-08T22:45:19.831Z,2.80
2023-05-08T22:48:22.844Z,2.30
2023-05-08T22:51:25.515Z,2.40
2023-05-08T22:54:28.408Z,2.87
2023-05-08T22:57:30.934Z,2.53
2023-05-08T23:00:33.794Z,2.40
2023-05-08T23:03:36.302Z,2.72
2023-05-08T23:06:39.071Z,2.67
2023-05-08T23:09:41.592Z,2.78
2023-05-08T23:12:44.738Z,2.72
2023-05-08T23:15:47.182Z,2.58
2023-05-08T23:18:49.903Z,3.10
2023-05-08T23:21:52.422Z,2.42
2023-05-08T23:24:57.544Z,2.90
2023-05-08T23:28:00.156Z,2.72
2023-05-08T23:31:03.882Z,2.53
2023-05-08T23:34:06.510Z,2.58
2023-05-08T23:37:09.625Z,2.75
2023-05-08T23:40:12.567Z,2.85
2023-05-08T23:43:15.519Z,3.17
2023-05-08T23:46:18.109Z,2.50
2023-05-08T23:49:21.157Z,2.65
2023-05-08T23:52:23.699Z,2.90
2023-05-08T23:55:26.784Z,2.83
2023-05-08T23:58:29.233Z,2.95
